Time;durP1;ratioP1;P1;durP2;ratioP2;P2;SDS_P1;SDS_P2;PMS_P1;PMS_P2;Temp;Humidity;BMP_temperature;BMP_pressure;BME280_temperature;BME280_humidity;BME280_pressure;Samples;Min_cycle;Max_cycle;Signal;HPM_P1;HPM_P2
2024/04/04 00:02:37;;;;;;;1.27;0.20;;;;;;;;;;10279113;28;20035;-76
2024/04/04 00:07:40;;;;;;;2.10;0.30;;;;;;;;;;10257756;28;20448;-76
2024/04/04 00:12:42;;;;;;;0.22;0.10;;;;;;;;;;10276770;28;20042;-76
2024/04/04 00:17:46;;;;;;;0.40;0.20;;;;;;;;;;10278122;28;20101;-76
2024/04/04 00:22:50;;;;;;;1.75;0.30;;;;;;;;;;10293538;28;20034;-76
2024/04/04 00:27:52;;;;;;;1.73;0.50;;;;;;;;;;10302486;28;20105;-77
2024/04/04 00:32:55;;;;;;;0.10;0.10;;;;;;;;;;10279202;28;20057;-76
2024/04/04 00:37:58;;;;;;;0.32;0.25;;;;;;;;;;10261364;28;20113;-78
2024/04/04 00:43:00;;;;;;;0.73;0.30;;;;;;;;;;10279595;28;20046;-77
2024/04/04 00:48:02;;;;;;;0.05;0.05;;;;;;;;;;10280920;28;20061;-77
2024/04/04 00:53:05;;;;;;;0.90;0.30;;;;;;;;;;10278470;28;20043;-77
2024/04/04 00:58:09;;;;;;;0.50;0.20;;;;;;;;;;10304709;28;20054;-76
2024/04/04 01:03:11;;;;;;;0.65;0.15;;;;;;;;;;10292776;28;20313;-76
2024/04/04 01:08:18;;;;;;;0.88;0.38;;;;;;;;;;10286985;28;20050;-75
2024/04/04 01:13:20;;;;;;;0.88;0.70;;;;;;;;;;10289987;28;20387;-78
2024/04/04 01:18:22;;;;;;;0.43;0.22;;;;;;;;;;10284858;28;20452;-77
2024/04/04 01:23:27;;;;;;;0.93;0.20;;;;;;;;;;10267118;28;20038;-77
2024/04/04 01:28:31;;;;;;;0.40;0.28;;;;;;;;;;10290584;28;22713;-78
2024/04/04 01:33:35;;;;;;;1.70;0.28;;;;;;;;;;10294211;28;20053;-77
2024/04/04 01:38:37;;;;;;;0.55;0.40;;;;;;;;;;10266809;28;20050;-77
2024/04/04 01:43:40;;;;;;;0.95;0.22;;;;;;;;;;10286707;28;20046;-77
2024/04/04 01:48:42;;;;;;;1.33;0.30;;;;;;;;;;10299052;28;20090;-77
2024/04/04 01:53:46;;;;;;;0.73;0.30;;;;;;;;;;10320219;28;20293;-77
2024/04/04 01:58:50;;;;;;;1.27;0.40;;;;;;;;;;10312724;28;20064;-78
2024/04/04 02:03:52;;;;;;;1.13;0.40;;;;;;;;;;10286052;28;20047;-77
2024/04/04 02:08:54;;;;;;;0.00;0.00;;;;;;;;;;10308464;28;20389;-73
2024/04/04 02:13:58;;;;;;;1.52;0.28;;;;;;;;;;10319219;28;20026;-77
2024/04/04 02:18:59;;;;;;;1.13;0.17;;;;;;;;;;10325840;28;20042;-78
2024/04/04 02:24:03;;;;;;;0.10;0.10;;;;;;;;;;10310445;28;20062;-78
2024/04/04 02:29:07;;;;;;;0.30;0.30;;;;;;;;;;10305056;28;20072;-77
2024/04/04 02:34:11;;;;;;;0.15;0.13;;;;;;;;;;10304477;28;20042;-77
2024/04/04 02:39:13;;;;;;;0.80;0.38;;;;;;;;;;10289144;28;20042;-77
2024/04/04 02:44:17;;;;;;;0.20;0.10;;;;;;;;;;10302285;28;20031;-74
2024/04/04 02:49:19;;;;;;;0.10;0.10;;;;;;;;;;10295448;28;20038;-74
2024/04/04 02:54:21;;;;;;;1.08;0.20;;;;;;;;;;10303843;28;20047;-75
2024/04/04 02:59:24;;;;;;;0.22;0.20;;;;;;;;;;10291397;28;20460;-75
2024/04/04 03:04:26;;;;;;;1.63;0.30;;;;;;;;;;10298960;28;20046;-76
2024/04/04 03:09:28;;;;;;;1.48;0.45;;;;;;;;;;10280120;28;20054;-76
2024/04/04 03:14:31;;;;;;;0.93;0.32;;;;;;;;;;10295349;28;20376;-77
2024/04/04 03:19:33;;;;;;;1.65;0.30;;;;;;;;;;10288782;28;20058;-77
2024/04/04 03:24:36;;;;;;;1.80;0.40;;;;;;;;;;10284155;28;20460;-77
2024/04/04 03:29:39;;;;;;;0.55;0.30;;;;;;;;;;10272462;28;20103;-75
2024/04/04 03:34:41;;;;;;;0.20;0.20;;;;;;;;;;10280276;28;20039;-74
2024/04/04 03:39:42;;;;;;;4.18;0.30;;;;;;;;;;10282617;28;20051;-75
2024/04/04 03:44:46;;;;;;;0.60;0.25;;;;;;;;;;10281403;28;20085;-76
2024/04/04 03:49:48;;;;;;;1.77;0.38;;;;;;;;;;10285711;28;20443;-76
2024/04/04 03:54:50;;;;;;;0.17;0.17;;;;;;;;;;10286891;28;20106;-76
2024/04/04 03:59:53;;;;;;;0.85;0.30;;;;;;;;;;10294438;28;20042;-76
2024/04/04 04:04:55;;;;;;;0.20;0.20;;;;;;;;;;10289103;28;20038;-76
2024/04/04 04:09:58;;;;;;;0.30;0.30;;;;;;;;;;10291889;28;20049;-75
2024/04/04 04:15:02;;;;;;;0.17;0.17;;;;;;;;;;10306708;28;20099;-80
2024/04/04 04:21:17;;;;;;;1.00;0.20;;;;;;;;;;10287809;28;20043;-75
2024/04/04 04:25:27;;;;;;;0.03;0.03;;;;;;;;;;10273203;28;20054;-76
2024/04/04 04:30:31;;;;;;;0.00;0.00;;;;;;;;;;10288343;28;20047;-75
2024/04/04 04:35:34;;;;;;;0.50;0.30;;;;;;;;;;10309528;28;20376;-76
2024/04/04 04:40:41;;;;;;;0.70;0.20;;;;;;;;;;10290986;28;20046;-76
2024/04/04 04:45:44;;;;;;;0.28;0.13;;;;;;;;;;10288736;28;20047;-76
2024/04/04 04:50:47;;;;;;;3.30;0.20;;;;;;;;;;10279018;28;20053;-76
2024/04/04 04:55:49;;;;;;;0.10;0.10;;;;;;;;;;10286390;28;20043;-76
2024/04/04 05:00:52;;;;;;;0.75;0.30;;;;;;;;;;10285484;28;20042;-77
2024/04/04 05:05:54;;;;;;;0.17;0.17;;;;;;;;;;10286722;28;20043;-76
2024/04/04 05:10:56;;;;;;;0.20;0.20;;;;;;;;;;10282739;28;20043;-75
2024/04/04 05:16:06;;;;;;;0.10;0.10;;;;;;;;;;10293308;28;20157;-78
2024/04/04 05:21:08;;;;;;;2.22;0.30;;;;;;;;;;10291940;28;20050;-74
2024/04/04 05:26:12;;;;;;;1.40;0.32;;;;;;;;;;10287609;28;20042;-74
2024/04/04 05:31:16;;;;;;;0.20;0.20;;;;;;;;;;10293825;28;20049;-75
2024/04/04 05:36:17;;;;;;;;;;;;;;;;;;10298555;28;20047;-76
2024/04/04 05:41:22;;;;;;;0.25;0.20;;;;;;;;;;10288757;28;20366;-75
2024/04/04 05:46:25;;;;;;;0.30;0.17;;;;;;;;;;10289627;28;20054;-76
2024/04/04 05:51:27;;;;;;;0.60;0.10;;;;;;;;;;10294430;28;20039;-75
2024/04/04 05:56:29;;;;;;;0.32;0.10;;;;;;;;;;10302686;28;20141;-76
2024/04/04 06:01:32;;;;;;;0.30;0.20;;;;;;;;;;10292309;28;20038;-78
2024/04/04 06:06:34;;;;;;;0.27;0.27;;;;;;;;;;10293108;28;20230;-77
2024/04/04 06:11:35;;;;;;;0.38;0.22;;;;;;;;;;10283057;28;20345;-77
2024/04/04 06:16:39;;;;;;;0.40;0.15;;;;;;;;;;10279862;28;20103;-77
2024/04/04 06:21:41;;;;;;;0.73;0.55;;;;;;;;;;10276560;28;20050;-77
2024/04/04 06:26:44;;;;;;;1.60;0.50;;;;;;;;;;10271676;28;20076;-77
2024/04/04 06:31:48;;;;;;;0.47;0.20;;;;;;;;;;10274252;28;20030;-77
2024/04/04 06:36:50;;;;;;;0.20;0.20;;;;;;;;;;10272832;28;20156;-77
2024/04/04 06:41:52;;;;;;;0.90;0.47;;;;;;;;;;10274001;28;20066;-76
2024/04/04 06:46:57;;;;;;;2.08;0.35;;;;;;;;;;10273168;28;20055;-76
2024/04/04 06:51:59;;;;;;;1.10;0.43;;;;;;;;;;10302820;28;20055;-76
2024/04/04 07:02:22;;;;;;;1.25;0.30;;;;;;;;;;10285069;28;20112;-79
2024/04/04 07:07:24;;;;;;;0.30;0.30;;;;;;;;;;10284319;28;20061;-77
2024/04/04 07:12:27;;;;;;;0.20;0.20;;;;;;;;;;10293993;28;20643;-77
2024/04/04 07:17:34;;;;;;;0.70;0.40;;;;;;;;;;10302588;28;20121;-78
2024/04/04 07:22:35;;;;;;;2.10;0.47;;;;;;;;;;10281906;28;20049;-76
2024/04/04 07:27:37;;;;;;;1.00;0.50;;;;;;;;;;10273769;28;20052;-76
2024/04/04 07:32:40;;;;;;;1.10;0.40;;;;;;;;;;10275755;28;20042;-77
2024/04/04 07:37:49;;;;;;;0.50;0.50;;;;;;;;;;10275691;28;20519;-76
2024/04/04 07:42:55;;;;;;;2.03;0.50;;;;;;;;;;10274488;28;20034;-77
2024/04/04 07:47:58;;;;;;;0.70;0.70;;;;;;;;;;10279157;28;20494;-76
2024/04/04 07:53:00;;;;;;;0.60;0.60;;;;;;;;;;10274592;28;20061;-76
2024/04/04 07:58:03;;;;;;;0.77;0.75;;;;;;;;;;10280286;28;20093;-77
2024/04/04 08:03:06;;;;;;;1.23;0.85;;;;;;;;;;10272641;28;20042;-77
2024/04/04 08:08:09;;;;;;;1.48;0.80;;;;;;;;;;10288250;28;20120;-75
2024/04/04 08:13:11;;;;;;;1.58;0.93;;;;;;;;;;10273805;28;20057;-76
2024/04/04 08:18:15;;;;;;;1.90;0.70;;;;;;;;;;10258795;28;20041;-77
2024/04/04 08:23:17;;;;;;;0.88;0.68;;;;;;;;;;10271667;28;20487;-77
2024/04/04 08:28:19;;;;;;;0.80;0.80;;;;;;;;;;10272213;28;20050;-77
2024/04/04 08:33:22;;;;;;;2.30;0.73;;;;;;;;;;10265377;28;20073;-78
2024/04/04 08:38:24;;;;;;;1.20;1.10;;;;;;;;;;10265889;28;20048;-79
2024/04/04 08:43:27;;;;;;;1.38;1.00;;;;;;;;;;10275439;28;20046;-77
2024/04/04 08:48:30;;;;;;;1.13;1.08;;;;;;;;;;10279237;28;20175;-78
2024/04/04 08:53:32;;;;;;;0.40;0.40;;;;;;;;;;10286902;28;20042;-77
2024/04/04 08:58:34;;;;;;;1.17;1.10;;;;;;;;;;10270108;28;20352;-77
2024/04/04 09:03:42;;;;;;;0.98;0.98;;;;;;;;;;10278401;28;20039;-78
2024/04/04 09:08:45;;;;;;;3.25;0.95;;;;;;;;;;10291337;28;20207;-77
2024/04/04 09:13:47;;;;;;;1.92;0.73;;;;;;;;;;10290866;28;20579;-77
2024/04/04 09:18:48;;;;;;;;;;;;;;;;;;10272496;28;20415;-78
2024/04/04 09:23:52;;;;;;;3.17;1.17;;;;;;;;;;10285603;28;19929;-78
2024/04/04 09:28:54;;;;;;;1.90;0.75;;;;;;;;;;10296368;28;20113;-78
2024/04/04 09:34:04;;;;;;;0.75;0.60;;;;;;;;;;10267858;28;20129;-76
2024/04/04 09:39:09;;;;;;;1.05;0.63;;;;;;;;;;10274610;28;20101;-77
2024/04/04 09:44:11;;;;;;;2.40;0.60;;;;;;;;;;10271027;28;20219;-77
2024/04/04 09:49:13;;;;;;;1.90;0.60;;;;;;;;;;10274669;28;20066;-76
2024/04/04 09:54:16;;;;;;;1.17;0.40;;;;;;;;;;10284806;28;20038;-77
2024/04/04 09:59:25;;;;;;;2.67;0.63;;;;;;;;;;10263102;28;20258;-77
2024/04/04 10:04:38;;;;;;;1.77;0.80;;;;;;;;;;10282960;28;20084;-77
2024/04/04 10:09:42;;;;;;;1.33;1.10;;;;;;;;;;10277362;28;20508;-76
2024/04/04 10:14:50;;;;;;;1.38;1.00;;;;;;;;;;10281814;28;20038;-78
2024/04/04 10:19:53;;;;;;;1.92;0.90;;;;;;;;;;10293831;28;20116;-78
2024/04/04 10:25:05;;;;;;;2.83;0.80;;;;;;;;;;10278473;28;20054;-79
2024/04/04 10:30:10;;;;;;;1.30;0.63;;;;;;;;;;10280836;28;20199;-78
2024/04/04 10:35:14;;;;;;;1.23;0.57;;;;;;;;;;10254572;28;20611;-78
2024/04/04 10:40:26;;;;;;;0.93;0.60;;;;;;;;;;10278883;28;20112;-79
2024/04/04 10:45:29;;;;;;;0.93;0.40;;;;;;;;;;10287909;28;20074;-78
2024/04/04 10:50:33;;;;;;;1.10;0.57;;;;;;;;;;10286184;28;20050;-79
2024/04/04 10:55:39;;;;;;;0.88;0.50;;;;;;;;;;10279549;28;20771;-79
2024/04/04 11:00:42;;;;;;;0.40;0.30;;;;;;;;;;10272131;28;20185;-78
2024/04/04 11:05:44;;;;;;;1.08;0.52;;;;;;;;;;10268564;28;20503;-77
2024/04/04 11:10:53;;;;;;;1.52;0.60;;;;;;;;;;10304579;28;20053;-78
2024/04/04 11:15:55;;;;;;;1.08;0.65;;;;;;;;;;10286370;28;20112;-78
2024/04/04 11:20:57;;;;;;;0.50;0.35;;;;;;;;;;10285844;28;20046;-78
2024/04/04 11:26:00;;;;;;;1.52;0.60;;;;;;;;;;10290411;28;20126;-78
2024/04/04 11:31:03;;;;;;;2.92;0.80;;;;;;;;;;10284830;28;20057;-77
2024/04/04 11:36:05;;;;;;;2.92;0.65;;;;;;;;;;10283762;28;20080;-78
2024/04/04 11:41:08;;;;;;;1.70;0.57;;;;;;;;;;10285052;28;20417;-77
2024/04/04 11:46:12;;;;;;;;;;;;;;;;;;10298065;28;20049;-76
2024/04/04 11:51:14;;;;;;;2.17;0.70;;;;;;;;;;10300447;28;20283;-76
2024/04/04 11:56:18;;;;;;;2.97;0.50;;;;;;;;;;10266091;28;20047;-77
2024/04/04 12:01:20;;;;;;;2.13;0.77;;;;;;;;;;10282241;28;20042;-76
2024/04/04 12:06:22;;;;;;;0.60;0.45;;;;;;;;;;10301355;28;20042;-78
2024/04/04 12:11:25;;;;;;;2.63;0.40;;;;;;;;;;10299119;28;20039;-77
2024/04/04 12:16:31;;;;;;;0.20;0.20;;;;;;;;;;10288879;28;20061;-77
2024/04/04 12:21:34;;;;;;;1.30;0.57;;;;;;;;;;10285513;28;20361;-77
2024/04/04 12:26:38;;;;;;;2.58;0.70;;;;;;;;;;10287619;28;20054;-78
2024/04/04 12:31:40;;;;;;;2.17;0.60;;;;;;;;;;10292484;28;20050;-77
2024/04/04 12:36:42;;;;;;;1.80;0.47;;;;;;;;;;10301222;28;20499;-78
2024/04/04 12:41:45;;;;;;;1.25;0.40;;;;;;;;;;10298126;28;20054;-77
2024/04/04 12:46:47;;;;;;;2.28;0.40;;;;;;;;;;10300095;28;20042;-77
2024/04/04 12:51:49;;;;;;;2.67;0.50;;;;;;;;;;10280830;28;20056;-77
2024/04/04 12:56:52;;;;;;;0.57;0.43;;;;;;;;;;10298733;28;20050;-77
2024/04/04 13:01:55;;;;;;;2.20;0.43;;;;;;;;;;10295792;28;20100;-78
2024/04/04 13:06:56;;;;;;;2.95;0.90;;;;;;;;;;10292846;28;20046;-77
2024/04/04 13:12:00;;;;;;;1.50;0.50;;;;;;;;;;10290499;28;20058;-77
2024/04/04 13:17:02;;;;;;;0.30;0.30;;;;;;;;;;10306149;28;20407;-78
2024/04/04 13:22:05;;;;;;;1.92;0.50;;;;;;;;;;10293761;28;20057;-77
2024/04/04 13:27:09;;;;;;;2.25;0.47;;;;;;;;;;10284504;28;20535;-76
2024/04/04 13:32:11;;;;;;;1.90;0.52;;;;;;;;;;10277823;28;20619;-77
2024/04/04 13:37:13;;;;;;;1.23;0.43;;;;;;;;;;10286400;28;20035;-76
2024/04/04 13:42:17;;;;;;;1.00;0.47;;;;;;;;;;10280527;28;20621;-76
2024/04/04 13:47:19;;;;;;;0.73;0.40;;;;;;;;;;10296553;28;20039;-77
2024/04/04 13:52:21;;;;;;;3.40;0.68;;;;;;;;;;10283430;28;20058;-78
2024/04/04 13:57:24;;;;;;;2.17;0.38;;;;;;;;;;10282829;28;20467;-77
2024/04/04 14:02:27;;;;;;;0.30;0.30;;;;;;;;;;10280513;28;20049;-76
2024/04/04 14:07:28;;;;;;;1.52;0.50;;;;;;;;;;10283537;28;20039;-77
2024/04/04 14:12:31;;;;;;;1.17;0.65;;;;;;;;;;10295372;28;20034;-76
2024/04/04 14:17:33;;;;;;;2.25;0.43;;;;;;;;;;10289857;28;20041;-76
2024/04/04 14:22:36;;;;;;;0.40;0.32;;;;;;;;;;10278872;28;20046;-76
2024/04/04 14:27:39;;;;;;;1.02;0.40;;;;;;;;;;10277419;28;20418;-77
2024/04/04 14:32:41;;;;;;;1.90;0.50;;;;;;;;;;10298809;28;20057;-77
2024/04/04 14:37:43;;;;;;;2.35;0.60;;;;;;;;;;10280546;28;20118;-77
2024/04/04 14:42:47;;;;;;;1.55;0.38;;;;;;;;;;10286420;28;20129;-76
2024/04/04 14:47:49;;;;;;;1.55;0.40;;;;;;;;;;10289065;28;20110;-76
2024/04/04 14:52:51;;;;;;;1.90;0.45;;;;;;;;;;10290629;28;20042;-76
2024/04/04 14:57:54;;;;;;;0.93;0.50;;;;;;;;;;10277020;28;20046;-77
2024/04/04 15:02:56;;;;;;;0.22;0.22;;;;;;;;;;10281626;28;20038;-76
2024/04/04 15:07:58;;;;;;;0.60;0.30;;;;;;;;;;10302426;28;20058;-77
2024/04/04 15:13:01;;;;;;;0.60;0.40;;;;;;;;;;10290239;28;20487;-77
2024/04/04 15:18:03;;;;;;;1.65;0.50;;;;;;;;;;10284106;28;20872;-77
2024/04/04 15:23:06;;;;;;;0.47;0.32;;;;;;;;;;10281962;28;20045;-77
2024/04/04 15:28:10;;;;;;;0.30;0.30;;;;;;;;;;10283564;28;20054;-77
2024/04/04 15:33:12;;;;;;;0.70;0.40;;;;;;;;;;10271813;28;20539;-77
2024/04/04 15:38:15;;;;;;;1.30;0.60;;;;;;;;;;10284599;28;20038;-76
2024/04/04 15:43:18;;;;;;;2.42;0.38;;;;;;;;;;10282411;28;20042;-77
2024/04/04 15:48:20;;;;;;;;;;;;;;;;;;10299503;28;20068;-76
2024/04/04 15:53:22;;;;;;;1.75;0.60;;;;;;;;;;10294586;28;20193;-77
2024/04/04 15:58:26;;;;;;;1.70;0.63;;;;;;;;;;10277963;28;20059;-76
2024/04/04 16:03:28;;;;;;;0.63;0.47;;;;;;;;;;10281095;28;20610;-77
2024/04/04 16:08:30;;;;;;;1.58;0.90;;;;;;;;;;10278588;28;20059;-77
2024/04/04 16:13:33;;;;;;;1.35;0.60;;;;;;;;;;10282472;28;20034;-77
2024/04/04 16:18:36;;;;;;;0.90;0.35;;;;;;;;;;10282126;28;20053;-77
2024/04/04 16:23:38;;;;;;;0.70;0.40;;;;;;;;;;10294957;28;20132;-76
2024/04/04 16:28:42;;;;;;;1.55;0.57;;;;;;;;;;10281251;28;20471;-78
2024/04/04 16:33:47;;;;;;;1.58;0.55;;;;;;;;;;10287668;28;20033;-76
2024/04/04 16:38:49;;;;;;;1.00;0.57;;;;;;;;;;10281753;28;20043;-77
2024/04/04 16:43:52;;;;;;;0.50;0.50;;;;;;;;;;10284359;28;20046;-78
2024/04/04 16:48:56;;;;;;;2.30;0.73;;;;;;;;;;10263877;28;20050;-79
2024/04/04 16:53:58;;;;;;;1.75;0.57;;;;;;;;;;10291775;28;20038;-79
2024/04/04 16:59:02;;;;;;;2.92;0.90;;;;;;;;;;10279801;28;20046;-78
2024/04/04 17:04:05;;;;;;;2.67;0.80;;;;;;;;;;10271876;28;20490;-78
2024/04/04 17:09:07;;;;;;;2.58;0.85;;;;;;;;;;10287357;28;20487;-77
2024/04/04 17:14:10;;;;;;;4.47;0.80;;;;;;;;;;10284414;28;20352;-77
2024/04/04 17:19:13;;;;;;;0.60;0.20;;;;;;;;;;10293298;28;20051;-78
2024/04/04 17:24:15;;;;;;;1.75;0.60;;;;;;;;;;10280710;28;20041;-78
2024/04/04 17:29:19;;;;;;;0.32;0.32;;;;;;;;;;10301679;28;20114;-78
2024/04/04 17:34:21;;;;;;;2.08;0.60;;;;;;;;;;10291223;28;20035;-78
2024/04/04 17:39:23;;;;;;;3.85;0.75;;;;;;;;;;10307447;28;20420;-78
2024/04/04 17:44:26;;;;;;;1.63;0.43;;;;;;;;;;10299086;28;20042;-78
2024/04/04 17:49:28;;;;;;;;;;;;;;;;;;10281099;28;20050;-78
2024/04/04 17:54:30;;;;;;;0.68;0.60;;;;;;;;;;10282909;28;19933;-78
2024/04/04 17:59:36;;;;;;;1.20;0.50;;;;;;;;;;10286981;28;20287;-77
2024/04/04 18:04:38;;;;;;;1.85;0.60;;;;;;;;;;10269747;28;20047;-78
2024/04/04 18:09:40;;;;;;;1.05;0.73;;;;;;;;;;10297770;28;20523;-78
2024/04/04 18:14:43;;;;;;;0.63;0.50;;;;;;;;;;10284048;28;20115;-77
2024/04/04 18:19:46;;;;;;;1.63;0.77;;;;;;;;;;10301419;28;20495;-78
2024/04/04 18:24:47;;;;;;;0.50;0.40;;;;;;;;;;10284806;28;20478;-77
2024/04/04 18:30:04;;;;;;;1.92;0.73;;;;;;;;;;10286745;28;20367;-80
2024/04/04 18:35:07;;;;;;;1.30;0.82;;;;;;;;;;10283802;28;20042;-78
2024/04/04 18:40:17;;;;;;;1.52;0.75;;;;;;;;;;10300078;28;20049;-78
2024/04/04 18:45:22;;;;;;;1.60;0.85;;;;;;;;;;10293860;28;20502;-77
2024/04/04 18:50:31;;;;;;;0.60;0.50;;;;;;;;;;10312659;28;20054;-77
2024/04/04 18:55:36;;;;;;;2.60;0.85;;;;;;;;;;10278887;28;20034;-79
2024/04/04 19:00:43;;;;;;;2.88;0.90;;;;;;;;;;10309713;28;20064;-77
2024/04/04 19:05:47;;;;;;;1.83;1.00;;;;;;;;;;10289455;28;21729;-78
2024/04/04 19:10:58;;;;;;;4.50;1.00;;;;;;;;;;10278907;28;20043;-81
2024/04/04 19:16:03;;;;;;;3.90;0.90;;;;;;;;;;10301945;28;20048;-76
2024/04/04 19:21:07;;;;;;;1.00;0.60;;;;;;;;;;10283698;28;20161;-77
2024/04/04 19:26:11;;;;;;;2.53;0.95;;;;;;;;;;10281179;28;20042;-78
2024/04/04 19:31:15;;;;;;;1.90;1.00;;;;;;;;;;10287536;28;20484;-77
2024/04/04 19:36:17;;;;;;;4.32;1.00;;;;;;;;;;10294026;28;20042;-77
2024/04/04 19:41:19;;;;;;;2.88;1.20;;;;;;;;;;10285186;28;20042;-77
2024/04/04 19:46:23;;;;;;;6.65;1.40;;;;;;;;;;10284329;28;20531;-76
2024/04/04 19:51:25;;;;;;;6.38;1.50;;;;;;;;;;10300802;28;20051;-78
2024/04/04 19:56:28;;;;;;;6.00;2.03;;;;;;;;;;10288153;28;20453;-78
2024/04/04 20:01:33;;;;;;;;;;;;;;;;;;10280229;28;20518;-79
2024/04/04 20:06:37;;;;;;;2.40;0.93;;;;;;;;;;10289440;28;20390;-77
2024/04/04 20:11:41;;;;;;;2.73;1.20;;;;;;;;;;10275699;28;20078;-79
2024/04/04 20:16:43;;;;;;;0.85;0.75;;;;;;;;;;10281862;28;20384;-77
2024/04/04 20:21:48;;;;;;;1.75;0.80;;;;;;;;;;10296405;28;20045;-76
2024/04/04 20:26:54;;;;;;;2.65;1.05;;;;;;;;;;10281693;28;20414;-77
2024/04/04 20:31:59;;;;;;;4.20;0.90;;;;;;;;;;10279214;28;20045;-76
2024/04/04 20:37:03;;;;;;;4.75;1.17;;;;;;;;;;10280887;28;20452;-75
2024/04/04 20:42:07;;;;;;;2.00;1.00;;;;;;;;;;10296762;28;20579;-76
2024/04/04 20:47:08;;;;;;;;;;;;;;;;;;10297163;28;20096;-78
2024/04/04 20:52:17;;;;;;;2.33;1.10;;;;;;;;;;10289289;28;20394;-75
2024/04/04 20:57:18;;;;;;;1.80;1.00;;;;;;;;;;10289548;28;20539;-77
2024/04/04 21:02:20;;;;;;;3.70;1.15;;;;;;;;;;10288858;28;20562;-76
2024/04/04 21:07:23;;;;;;;3.53;1.40;;;;;;;;;;10278227;28;20034;-79
2024/04/04 21:12:25;;;;;;;1.92;0.80;;;;;;;;;;10294626;28;20045;-79
2024/04/04 21:17:28;;;;;;;3.78;1.65;;;;;;;;;;10283553;28;20087;-77
2024/04/04 21:22:31;;;;;;;4.07;1.20;;;;;;;;;;10293892;28;20578;-77
2024/04/04 21:27:36;;;;;;;2.10;0.85;;;;;;;;;;10260838;28;20137;-78
2024/04/04 21:32:38;;;;;;;2.78;1.08;;;;;;;;;;10276898;28;20049;-77
2024/04/04 21:37:44;;;;;;;2.38;0.73;;;;;;;;;;10280841;28;20043;-79
2024/04/04 21:42:48;;;;;;;6.07;1.45;;;;;;;;;;10289813;28;20137;-77
2024/04/04 21:47:50;;;;;;;3.97;1.40;;;;;;;;;;10279460;28;20042;-80
2024/04/04 21:52:56;;;;;;;6.32;1.33;;;;;;;;;;10292313;28;20054;-78
2024/04/04 21:58:00;;;;;;;2.17;1.08;;;;;;;;;;10289431;28;20038;-78
2024/04/04 22:03:06;;;;;;;1.90;1.20;;;;;;;;;;10282952;28;20392;-77
2024/04/04 22:08:10;;;;;;;2.33;1.10;;;;;;;;;;10282534;28;20538;-77
2024/04/04 22:13:12;;;;;;;2.95;1.05;;;;;;;;;;10280141;28;20109;-78
2024/04/04 22:18:17;;;;;;;2.95;1.27;;;;;;;;;;10291812;28;20046;-77
2024/04/04 22:23:21;;;;;;;4.93;0.77;;;;;;;;;;10279170;28;20046;-78
2024/04/04 22:28:27;;;;;;;3.10;1.20;;;;;;;;;;10305755;28;20458;-78
2024/04/04 22:33:30;;;;;;;5.00;1.40;;;;;;;;;;10271740;28;20043;-77
2024/04/04 22:38:35;;;;;;;3.20;1.00;;;;;;;;;;10292826;28;20546;-77
2024/04/04 22:43:36;;;;;;;2.50;0.90;;;;;;;;;;10274723;28;20049;-77
2024/04/04 22:48:38;;;;;;;3.65;0.90;;;;;;;;;;10289026;28;20051;-77
2024/04/04 22:53:42;;;;;;;2.35;0.90;;;;;;;;;;10292429;28;20097;-76
2024/04/04 22:58:44;;;;;;;1.17;0.60;;;;;;;;;;10306959;28;20500;-77
2024/04/04 23:03:47;;;;;;;1.45;0.77;;;;;;;;;;10296146;28;20112;-79
2024/04/04 23:08:50;;;;;;;2.50;0.80;;;;;;;;;;10282625;28;20039;-79
2024/04/04 23:13:52;;;;;;;1.70;0.53;;;;;;;;;;10286793;28;20057;-79
2024/04/04 23:18:56;;;;;;;2.25;1.00;;;;;;;;;;10289526;28;20050;-80
2024/04/04 23:24:01;;;;;;;3.88;0.77;;;;;;;;;;10296191;28;20078;-78
2024/04/04 23:29:02;;;;;;;1.13;0.70;;;;;;;;;;10288998;28;20046;-78
2024/04/04 23:34:05;;;;;;;3.60;1.00;;;;;;;;;;10267218;28;20045;-78
2024/04/04 23:39:09;;;;;;;1.17;0.50;;;;;;;;;;10289891;28;20171;-77
2024/04/04 23:44:12;;;;;;;1.95;0.80;;;;;;;;;;10285658;28;20038;-75
2024/04/04 23:49:15;;;;;;;2.45;0.90;;;;;;;;;;10309054;28;20034;-77
2024/04/04 23:54:17;;;;;;;2.53;0.95;;;;;;;;;;10275591;28;20077;-76
2024/04/04 23:59:19;;;;;;;1.77;0.77;;;;;;;;;;10293977;28;20046;-77
